sensor_id;sensor_type;location;lat;lon;timestamp;P1;durP1;ratioP1;P2;durP2;ratioP2
14116;SDS011;7137;51.436;6.544;2022-11-13T00:00:47;14.90;;;12.90;;
14116;SDS011;7137;51.436;6.544;2022-11-13T00:03:49;17.27;;;14.67;;
14116;SDS011;7137;51.436;6.544;2022-11-13T00:06:55;18.37;;;15.83;;
14116;SDS011;7137;51.436;6.544;2022-11-13T00:09:57;18.87;;;15.33;;
14116;SDS011;7137;51.436;6.544;2022-11-13T00:12:59;22.07;;;16.77;;
14116;SDS011;7137;51.436;6.544;2022-11-13T00:16:03;21.27;;;16.87;;
14116;SDS011;7137;51.436;6.544;2022-11-13T00:19:06;18.60;;;15.00;;
14116;SDS011;7137;51.436;6.544;2022-11-13T00:22:09;17.90;;;14.80;;
14116;SDS011;7137;51.436;6.544;2022-11-13T00:25:11;17.57;;;14.20;;
14116;SDS011;7137;51.436;6.544;2022-11-13T00:28:12;20.57;;;15.93;;
14116;SDS011;7137;51.436;6.544;2022-11-13T00:31:14;19.23;;;15.47;;
14116;SDS011;7137;51.436;6.544;2022-11-13T00:34:17;16.97;;;15.03;;
14116;SDS011;7137;51.436;6.544;2022-11-13T00:37:20;16.40;;;14.63;;
14116;SDS011;7137;51.436;6.544;2022-11-13T00:40:21;18.17;;;14.63;;
14116;SDS011;7137;51.436;6.544;2022-11-13T00:43:23;18.90;;;15.30;;
14116;SDS011;7137;51.436;6.544;2022-11-13T00:46:24;17.33;;;15.33;;
14116;SDS011;7137;51.436;6.544;2022-11-13T00:49:26;19.27;;;15.73;;
14116;SDS011;7137;51.436;6.544;2022-11-13T00:52:29;18.13;;;14.90;;
14116;SDS011;7137;51.436;6.544;2022-11-13T00:55:30;17.17;;;14.10;;
14116;SDS011;7137;51.436;6.544;2022-11-13T00:58:32;17.83;;;14.50;;
14116;SDS011;7137;51.436;6.544;2022-11-13T01:01:33;17.37;;;14.93;;
14116;SDS011;7137;51.436;6.544;2022-11-13T01:04:35;17.83;;;14.57;;
14116;SDS011;7137;51.436;6.544;2022-11-13T01:07:38;17.07;;;15.13;;
14116;SDS011;7137;51.436;6.544;2022-11-13T01:10:40;17.97;;;14.90;;
14116;SDS011;7137;51.436;6.544;2022-11-13T01:13:44;17.03;;;14.10;;
14116;SDS011;7137;51.436;6.544;2022-11-13T01:16:48;17.37;;;14.50;;
14116;SDS011;7137;51.436;6.544;2022-11-13T01:19:49;19.63;;;15.47;;
14116;SDS011;7137;51.436;6.544;2022-11-13T01:22:52;18.43;;;15.13;;
14116;SDS011;7137;51.436;6.544;2022-11-13T01:25:54;18.50;;;14.27;;
14116;SDS011;7137;51.436;6.544;2022-11-13T01:28:56;18.70;;;14.40;;
14116;SDS011;7137;51.436;6.544;2022-11-13T01:31:59;17.83;;;14.33;;
14116;SDS011;7137;51.436;6.544;2022-11-13T01:35:00;16.63;;;14.70;;
14116;SDS011;7137;51.436;6.544;2022-11-13T01:38:03;19.40;;;14.60;;
14116;SDS011;7137;51.436;6.544;2022-11-13T01:41:05;16.87;;;14.50;;
14116;SDS011;7137;51.436;6.544;2022-11-13T01:44:09;16.90;;;14.77;;
14116;SDS011;7137;51.436;6.544;2022-11-13T01:47:12;18.40;;;14.23;;
14116;SDS011;7137;51.436;6.544;2022-11-13T01:50:14;18.07;;;14.57;;
14116;SDS011;7137;51.436;6.544;2022-11-13T01:53:17;16.53;;;14.60;;
14116;SDS011;7137;51.436;6.544;2022-11-13T01:56:19;17.17;;;14.00;;
14116;SDS011;7137;51.436;6.544;2022-11-13T01:59:22;17.13;;;13.87;;
14116;SDS011;7137;51.436;6.544;2022-11-13T02:02:27;15.73;;;13.50;;
14116;SDS011;7137;51.436;6.544;2022-11-13T02:05:29;14.97;;;13.00;;
14116;SDS011;7137;51.436;6.544;2022-11-13T02:08:32;16.33;;;13.27;;
14116;SDS011;7137;51.436;6.544;2022-11-13T02:11:33;14.73;;;12.47;;
14116;SDS011;7137;51.436;6.544;2022-11-13T02:14:37;16.87;;;13.23;;
14116;SDS011;7137;51.436;6.544;2022-11-13T02:17:41;16.57;;;13.33;;
14116;SDS011;7137;51.436;6.544;2022-11-13T02:20:48;15.57;;;13.43;;
14116;SDS011;7137;51.436;6.544;2022-11-13T02:23:59;16.00;;;13.90;;
14116;SDS011;7137;51.436;6.544;2022-11-13T02:27:07;16.13;;;13.50;;
14116;SDS011;7137;51.436;6.544;2022-11-13T02:30:15;16.10;;;13.23;;
14116;SDS011;7137;51.436;6.544;2022-11-13T02:33:20;16.00;;;13.00;;
14116;SDS011;7137;51.436;6.544;2022-11-13T02:36:23;15.03;;;12.70;;
14116;SDS011;7137;51.436;6.544;2022-11-13T02:39:26;15.83;;;12.23;;
14116;SDS011;7137;51.436;6.544;2022-11-13T02:42:32;14.80;;;12.10;;
14116;SDS011;7137;51.436;6.544;2022-11-13T02:45:34;12.37;;;10.20;;
14116;SDS011;7137;51.436;6.544;2022-11-13T02:48:37;12.90;;;10.87;;
14116;SDS011;7137;51.436;6.544;2022-11-13T02:51:39;13.33;;;10.70;;
14116;SDS011;7137;51.436;6.544;2022-11-13T02:54:40;12.93;;;10.57;;
14116;SDS011;7137;51.436;6.544;2022-11-13T02:57:43;11.77;;;9.73;;
14116;SDS011;7137;51.436;6.544;2022-11-13T03:00:45;11.87;;;9.47;;
14116;SDS011;7137;51.436;6.544;2022-11-13T03:03:46;11.90;;;9.53;;
14116;SDS011;7137;51.436;6.544;2022-11-13T03:06:48;12.00;;;10.00;;
14116;SDS011;7137;51.436;6.544;2022-11-13T03:09:50;12.47;;;9.77;;
14116;SDS011;7137;51.436;6.544;2022-11-13T03:12:52;11.33;;;9.37;;
14116;SDS011;7137;51.436;6.544;2022-11-13T03:15:54;12.40;;;9.90;;
14116;SDS011;7137;51.436;6.544;2022-11-13T03:18:56;12.20;;;10.07;;
14116;SDS011;7137;51.436;6.544;2022-11-13T03:21:57;11.83;;;9.40;;
14116;SDS011;7137;51.436;6.544;2022-11-13T03:24:59;10.87;;;9.37;;
14116;SDS011;7137;51.436;6.544;2022-11-13T03:28:02;12.17;;;9.23;;
14116;SDS011;7137;51.436;6.544;2022-11-13T03:31:03;11.33;;;8.77;;
14116;SDS011;7137;51.436;6.544;2022-11-13T03:34:05;11.33;;;9.40;;
14116;SDS011;7137;51.436;6.544;2022-11-13T03:37:07;11.63;;;8.73;;
14116;SDS011;7137;51.436;6.544;2022-11-13T03:40:10;10.20;;;8.20;;
14116;SDS011;7137;51.436;6.544;2022-11-13T03:43:13;11.03;;;9.20;;
14116;SDS011;7137;51.436;6.544;2022-11-13T03:46:15;12.00;;;9.27;;
14116;SDS011;7137;51.436;6.544;2022-11-13T03:49:17;9.97;;;8.60;;
14116;SDS011;7137;51.436;6.544;2022-11-13T03:52:18;10.73;;;8.57;;
14116;SDS011;7137;51.436;6.544;2022-11-13T03:55:20;10.53;;;8.43;;
14116;SDS011;7137;51.436;6.544;2022-11-13T03:58:23;9.90;;;8.33;;
14116;SDS011;7137;51.436;6.544;2022-11-13T04:01:24;10.40;;;8.47;;
14116;SDS011;7137;51.436;6.544;2022-11-13T04:04:26;10.47;;;8.60;;
14116;SDS011;7137;51.436;6.544;2022-11-13T04:07:27;8.40;;;7.50;;
14116;SDS011;7137;51.436;6.544;2022-11-13T04:10:44;10.93;;;8.40;;
14116;SDS011;7137;51.436;6.544;2022-11-13T04:13:47;12.90;;;8.37;;
14116;SDS011;7137;51.436;6.544;2022-11-13T04:16:48;10.10;;;8.13;;
14116;SDS011;7137;51.436;6.544;2022-11-13T04:19:50;10.43;;;7.00;;
14116;SDS011;7137;51.436;6.544;2022-11-13T04:22:52;9.70;;;7.93;;
14116;SDS011;7137;51.436;6.544;2022-11-13T04:25:53;9.10;;;7.50;;
14116;SDS011;7137;51.436;6.544;2022-11-13T04:28:56;10.00;;;8.33;;
14116;SDS011;7137;51.436;6.544;2022-11-13T04:31:58;9.33;;;7.17;;
14116;SDS011;7137;51.436;6.544;2022-11-13T04:34:59;10.13;;;8.00;;
14116;SDS011;7137;51.436;6.544;2022-11-13T04:38:00;9.97;;;7.47;;
14116;SDS011;7137;51.436;6.544;2022-11-13T04:41:02;10.67;;;7.87;;
14116;SDS011;7137;51.436;6.544;2022-11-13T04:44:23;9.93;;;7.33;;
14116;SDS011;7137;51.436;6.544;2022-11-13T04:47:24;10.00;;;7.60;;
14116;SDS011;7137;51.436;6.544;2022-11-13T04:50:26;9.97;;;7.90;;
14116;SDS011;7137;51.436;6.544;2022-11-13T04:53:28;9.23;;;7.80;;
14116;SDS011;7137;51.436;6.544;2022-11-13T04:56:29;9.70;;;7.23;;
14116;SDS011;7137;51.436;6.544;2022-11-13T04:59:33;9.73;;;7.50;;
14116;SDS011;7137;51.436;6.544;2022-11-13T05:02:34;9.77;;;7.00;;
14116;SDS011;7137;51.436;6.544;2022-11-13T05:05:36;8.67;;;6.90;;
14116;SDS011;7137;51.436;6.544;2022-11-13T05:08:37;9.63;;;7.30;;
14116;SDS011;7137;51.436;6.544;2022-11-13T05:11:39;8.57;;;6.80;;
14116;SDS011;7137;51.436;6.544;2022-11-13T05:14:42;8.87;;;6.70;;
14116;SDS011;7137;51.436;6.544;2022-11-13T05:17:43;8.80;;;7.10;;
14116;SDS011;7137;51.436;6.544;2022-11-13T05:20:48;8.87;;;6.80;;
14116;SDS011;7137;51.436;6.544;2022-11-13T05:23:50;10.07;;;7.17;;
14116;SDS011;7137;51.436;6.544;2022-11-13T05:26:51;9.73;;;7.00;;
14116;SDS011;7137;51.436;6.544;2022-11-13T05:29:54;9.13;;;6.73;;
14116;SDS011;7137;51.436;6.544;2022-11-13T05:32:56;8.90;;;6.90;;
14116;SDS011;7137;51.436;6.544;2022-11-13T05:35:59;8.70;;;6.80;;
14116;SDS011;7137;51.436;6.544;2022-11-13T05:39:01;8.17;;;6.70;;
14116;SDS011;7137;51.436;6.544;2022-11-13T05:42:03;9.10;;;7.00;;
14116;SDS011;7137;51.436;6.544;2022-11-13T05:45:07;8.57;;;7.10;;
14116;SDS011;7137;51.436;6.544;2022-11-13T05:48:10;9.00;;;6.57;;
14116;SDS011;7137;51.436;6.544;2022-11-13T05:51:12;8.50;;;6.47;;
14116;SDS011;7137;51.436;6.544;2022-11-13T05:54:15;8.27;;;6.50;;
14116;SDS011;7137;51.436;6.544;2022-11-13T05:57:16;8.57;;;6.40;;
14116;SDS011;7137;51.436;6.544;2022-11-13T06:00:19;8.30;;;6.50;;
14116;SDS011;7137;51.436;6.544;2022-11-13T06:03:20;8.93;;;6.87;;
14116;SDS011;7137;51.436;6.544;2022-11-13T06:06:22;9.10;;;6.70;;
14116;SDS011;7137;51.436;6.544;2022-11-13T06:09:25;8.20;;;6.60;;
14116;SDS011;7137;51.436;6.544;2022-11-13T06:12:27;8.07;;;6.00;;
14116;SDS011;7137;51.436;6.544;2022-11-13T06:15:30;8.43;;;6.50;;
14116;SDS011;7137;51.436;6.544;2022-11-13T06:18:32;8.00;;;6.30;;
14116;SDS011;7137;51.436;6.544;2022-11-13T06:21:35;8.03;;;6.20;;
14116;SDS011;7137;51.436;6.544;2022-11-13T06:24:39;8.80;;;6.50;;
14116;SDS011;7137;51.436;6.544;2022-11-13T06:27:40;8.97;;;6.50;;
14116;SDS011;7137;51.436;6.544;2022-11-13T06:30:43;9.27;;;6.60;;
14116;SDS011;7137;51.436;6.544;2022-11-13T06:33:44;8.27;;;6.27;;
14116;SDS011;7137;51.436;6.544;2022-11-13T06:36:46;8.07;;;6.63;;
14116;SDS011;7137;51.436;6.544;2022-11-13T06:39:47;7.50;;;6.10;;
14116;SDS011;7137;51.436;6.544;2022-11-13T06:42:49;8.00;;;6.17;;
14116;SDS011;7137;51.436;6.544;2022-11-13T06:45:52;9.13;;;6.80;;
14116;SDS011;7137;51.436;6.544;2022-11-13T06:48:53;9.23;;;6.37;;
14116;SDS011;7137;51.436;6.544;2022-11-13T06:51:55;8.37;;;5.90;;
14116;SDS011;7137;51.436;6.544;2022-11-13T06:54:56;7.63;;;6.13;;
14116;SDS011;7137;51.436;6.544;2022-11-13T06:57:59;7.27;;;5.70;;
14116;SDS011;7137;51.436;6.544;2022-11-13T07:01:05;7.37;;;6.07;;
14116;SDS011;7137;51.436;6.544;2022-11-13T07:04:08;7.73;;;6.50;;
14116;SDS011;7137;51.436;6.544;2022-11-13T07:07:12;7.27;;;6.00;;
14116;SDS011;7137;51.436;6.544;2022-11-13T07:10:13;7.40;;;5.90;;
14116;SDS011;7137;51.436;6.544;2022-11-13T07:13:15;8.50;;;5.93;;
14116;SDS011;7137;51.436;6.544;2022-11-13T07:16:18;8.47;;;6.40;;
14116;SDS011;7137;51.436;6.544;2022-11-13T07:19:19;7.83;;;6.13;;
14116;SDS011;7137;51.436;6.544;2022-11-13T07:22:21;8.23;;;6.30;;
14116;SDS011;7137;51.436;6.544;2022-11-13T07:25:22;7.30;;;5.80;;
14116;SDS011;7137;51.436;6.544;2022-11-13T07:28:24;8.87;;;6.77;;
14116;SDS011;7137;51.436;6.544;2022-11-13T07:31:27;8.07;;;6.83;;
14116;SDS011;7137;51.436;6.544;2022-11-13T07:34:28;9.30;;;6.60;;
14116;SDS011;7137;51.436;6.544;2022-11-13T07:37:30;9.27;;;7.50;;
14116;SDS011;7137;51.436;6.544;2022-11-13T07:40:31;10.40;;;7.03;;
14116;SDS011;7137;51.436;6.544;2022-11-13T07:43:34;10.10;;;7.30;;
14116;SDS011;7137;51.436;6.544;2022-11-13T07:46:37;8.40;;;6.93;;
14116;SDS011;7137;51.436;6.544;2022-11-13T07:49:38;9.03;;;7.40;;
14116;SDS011;7137;51.436;6.544;2022-11-13T07:52:40;8.87;;;6.90;;
14116;SDS011;7137;51.436;6.544;2022-11-13T07:55:41;9.17;;;7.10;;
14116;SDS011;7137;51.436;6.544;2022-11-13T07:58:42;9.17;;;6.80;;
14116;SDS011;7137;51.436;6.544;2022-11-13T08:01:45;8.80;;;7.10;;
14116;SDS011;7137;51.436;6.544;2022-11-13T08:04:47;7.97;;;6.57;;
14116;SDS011;7137;51.436;6.544;2022-11-13T08:07:48;8.93;;;7.40;;
14116;SDS011;7137;51.436;6.544;2022-11-13T08:10:51;9.83;;;7.97;;
14116;SDS011;7137;51.436;6.544;2022-11-13T08:13:53;9.43;;;7.63;;
14116;SDS011;7137;51.436;6.544;2022-11-13T08:16:56;11.03;;;8.13;;
14116;SDS011;7137;51.436;6.544;2022-11-13T08:19:57;8.93;;;7.57;;
14116;SDS011;7137;51.436;6.544;2022-11-13T08:22:59;9.13;;;7.70;;
14116;SDS011;7137;51.436;6.544;2022-11-13T08:26:03;10.03;;;8.63;;
14116;SDS011;7137;51.436;6.544;2022-11-13T08:29:05;17.17;;;13.17;;
14116;SDS011;7137;51.436;6.544;2022-11-13T08:32:08;13.27;;;11.93;;
14116;SDS011;7137;51.436;6.544;2022-11-13T08:35:09;9.60;;;8.30;;
14116;SDS011;7137;51.436;6.544;2022-11-13T08:38:11;8.73;;;6.40;;
14116;SDS011;7137;51.436;6.544;2022-11-13T08:41:12;8.37;;;6.20;;
14116;SDS011;7137;51.436;6.544;2022-11-13T08:44:14;9.07;;;6.13;;
14116;SDS011;7137;51.436;6.544;2022-11-13T08:47:17;7.27;;;5.73;;
14116;SDS011;7137;51.436;6.544;2022-11-13T08:50:18;7.20;;;5.50;;
14116;SDS011;7137;51.436;6.544;2022-11-13T08:53:21;8.10;;;6.07;;
14116;SDS011;7137;51.436;6.544;2022-11-13T08:56:23;7.83;;;5.93;;
14116;SDS011;7137;51.436;6.544;2022-11-13T08:59:24;8.30;;;5.37;;
14116;SDS011;7137;51.436;6.544;2022-11-13T09:02:28;8.50;;;5.90;;
14116;SDS011;7137;51.436;6.544;2022-11-13T09:05:29;6.70;;;5.43;;
14116;SDS011;7137;51.436;6.544;2022-11-13T09:08:31;7.10;;;5.63;;
14116;SDS011;7137;51.436;6.544;2022-11-13T09:11:33;7.50;;;5.50;;
14116;SDS011;7137;51.436;6.544;2022-11-13T09:14:34;7.60;;;5.97;;
14116;SDS011;7137;51.436;6.544;2022-11-13T09:17:37;7.97;;;5.80;;
14116;SDS011;7137;51.436;6.544;2022-11-13T09:20:39;6.50;;;4.90;;
14116;SDS011;7137;51.436;6.544;2022-11-13T09:23:41;7.73;;;5.13;;
14116;SDS011;7137;51.436;6.544;2022-11-13T09:26:42;8.33;;;5.40;;
14116;SDS011;7137;51.436;6.544;2022-11-13T09:29:45;8.67;;;5.13;;
14116;SDS011;7137;51.436;6.544;2022-11-13T09:32:51;6.80;;;5.73;;
14116;SDS011;7137;51.436;6.544;2022-11-13T09:35:53;8.63;;;6.30;;
14116;SDS011;7137;51.436;6.544;2022-11-13T09:38:56;7.40;;;5.93;;
14116;SDS011;7137;51.436;6.544;2022-11-13T09:42:01;7.80;;;6.03;;
14116;SDS011;7137;51.436;6.544;2022-11-13T09:45:12;7.33;;;5.63;;
14116;SDS011;7137;51.436;6.544;2022-11-13T09:48:19;7.60;;;6.13;;
14116;SDS011;7137;51.436;6.544;2022-11-13T09:51:27;8.30;;;6.07;;
14116;SDS011;7137;51.436;6.544;2022-11-13T09:54:30;8.13;;;6.37;;
14116;SDS011;7137;51.436;6.544;2022-11-13T09:57:34;8.90;;;6.23;;
14116;SDS011;7137;51.436;6.544;2022-11-13T10:00:40;6.43;;;5.10;;
14116;SDS011;7137;51.436;6.544;2022-11-13T10:03:44;6.77;;;5.30;;
14116;SDS011;7137;51.436;6.544;2022-11-13T10:06:56;7.87;;;5.73;;
14116;SDS011;7137;51.436;6.544;2022-11-13T10:10:12;7.30;;;5.53;;
14116;SDS011;7137;51.436;6.544;2022-11-13T10:13:23;7.20;;;5.80;;
14116;SDS011;7137;51.436;6.544;2022-11-13T10:16:30;7.73;;;5.60;;
14116;SDS011;7137;51.436;6.544;2022-11-13T10:19:41;6.87;;;5.60;;
14116;SDS011;7137;51.436;6.544;2022-11-13T10:22:53;6.60;;;5.30;;
14116;SDS011;7137;51.436;6.544;2022-11-13T10:25:59;6.70;;;5.13;;
14116;SDS011;7137;51.436;6.544;2022-11-13T10:29:11;6.33;;;4.73;;
14116;SDS011;7137;51.436;6.544;2022-11-13T10:32:16;7.97;;;5.07;;
14116;SDS011;7137;51.436;6.544;2022-11-13T10:35:39;6.87;;;5.07;;
14116;SDS011;7137;51.436;6.544;2022-11-13T10:38:49;7.20;;;5.20;;
14116;SDS011;7137;51.436;6.544;2022-11-13T10:41:54;7.87;;;5.40;;
14116;SDS011;7137;51.436;6.544;2022-11-13T10:44:57;9.53;;;5.97;;
14116;SDS011;7137;51.436;6.544;2022-11-13T10:48:00;8.53;;;5.37;;
14116;SDS011;7137;51.436;6.544;2022-11-13T10:51:04;9.33;;;5.90;;
14116;SDS011;7137;51.436;6.544;2022-11-13T10:54:22;8.40;;;5.67;;
14116;SDS011;7137;51.436;6.544;2022-11-13T10:57:27;8.77;;;5.90;;
14116;SDS011;7137;51.436;6.544;2022-11-13T11:00:33;8.03;;;5.23;;
14116;SDS011;7137;51.436;6.544;2022-11-13T11:03:46;8.70;;;5.60;;
14116;SDS011;7137;51.436;6.544;2022-11-13T11:06:50;7.13;;;4.93;;
14116;SDS011;7137;51.436;6.544;2022-11-13T11:09:53;8.03;;;5.03;;
14116;SDS011;7137;51.436;6.544;2022-11-13T11:12:55;7.33;;;4.30;;
14116;SDS011;7137;51.436;6.544;2022-11-13T11:16:00;7.70;;;4.90;;
14116;SDS011;7137;51.436;6.544;2022-11-13T11:19:05;8.17;;;4.87;;
14116;SDS011;7137;51.436;6.544;2022-11-13T11:22:13;7.63;;;4.50;;
14116;SDS011;7137;51.436;6.544;2022-11-13T11:25:21;7.20;;;4.40;;
14116;SDS011;7137;51.436;6.544;2022-11-13T11:28:31;7.40;;;4.50;;
14116;SDS011;7137;51.436;6.544;2022-11-13T11:31:38;7.80;;;4.40;;
14116;SDS011;7137;51.436;6.544;2022-11-13T11:34:46;7.83;;;4.40;;
14116;SDS011;7137;51.436;6.544;2022-11-13T11:37:56;10.43;;;6.20;;
14116;SDS011;7137;51.436;6.544;2022-11-13T11:41:05;10.53;;;5.50;;
14116;SDS011;7137;51.436;6.544;2022-11-13T11:44:12;9.50;;;4.97;;
14116;SDS011;7137;51.436;6.544;2022-11-13T11:47:21;8.07;;;4.57;;
14116;SDS011;7137;51.436;6.544;2022-11-13T11:50:27;9.57;;;5.07;;
14116;SDS011;7137;51.436;6.544;2022-11-13T11:53:37;7.53;;;4.90;;
14116;SDS011;7137;51.436;6.544;2022-11-13T11:56:49;8.00;;;4.50;;
14116;SDS011;7137;51.436;6.544;2022-11-13T11:59:57;7.13;;;4.30;;
14116;SDS011;7137;51.436;6.544;2022-11-13T12:03:18;6.23;;;4.00;;
14116;SDS011;7137;51.436;6.544;2022-11-13T12:06:43;5.73;;;3.73;;
14116;SDS011;7137;51.436;6.544;2022-11-13T12:09:54;7.80;;;4.23;;
14116;SDS011;7137;51.436;6.544;2022-11-13T12:13:08;7.20;;;3.87;;
14116;SDS011;7137;51.436;6.544;2022-11-13T12:16:24;7.93;;;3.97;;
14116;SDS011;7137;51.436;6.544;2022-11-13T12:19:33;7.10;;;3.80;;
14116;SDS011;7137;51.436;6.544;2022-11-13T12:22:46;8.23;;;4.20;;
14116;SDS011;7137;51.436;6.544;2022-11-13T12:25:58;6.07;;;3.30;;
14116;SDS011;7137;51.436;6.544;2022-11-13T12:29:06;5.93;;;3.60;;
14116;SDS011;7137;51.436;6.544;2022-11-13T12:32:23;6.60;;;3.67;;
14116;SDS011;7137;51.436;6.544;2022-11-13T12:35:33;6.43;;;3.60;;
14116;SDS011;7137;51.436;6.544;2022-11-13T12:38:38;6.73;;;3.37;;
14116;SDS011;7137;51.436;6.544;2022-11-13T12:41:50;6.43;;;3.67;;
14116;SDS011;7137;51.436;6.544;2022-11-13T12:44:59;4.93;;;3.23;;
14116;SDS011;7137;51.436;6.544;2022-11-13T12:48:07;6.33;;;3.27;;
14116;SDS011;7137;51.436;6.544;2022-11-13T12:51:10;5.53;;;3.13;;
14116;SDS011;7137;51.436;6.544;2022-11-13T12:54:13;5.10;;;3.00;;
14116;SDS011;7137;51.436;6.544;2022-11-13T12:57:27;4.87;;;2.87;;
14116;SDS011;7137;51.436;6.544;2022-11-13T13:00:28;4.23;;;2.50;;
14116;SDS011;7137;51.436;6.544;2022-11-13T13:07:09;4.43;;;2.20;;
14116;SDS011;7137;51.436;6.544;2022-11-13T13:10:22;5.00;;;2.50;;
14116;SDS011;7137;51.436;6.544;2022-11-13T13:13:32;5.63;;;2.83;;
14116;SDS011;7137;51.436;6.544;2022-11-13T13:16:40;5.93;;;2.80;;
14116;SDS011;7137;51.436;6.544;2022-11-13T13:19:42;4.97;;;2.50;;
14116;SDS011;7137;51.436;6.544;2022-11-13T13:22:53;4.63;;;2.40;;
14116;SDS011;7137;51.436;6.544;2022-11-13T13:26:00;4.80;;;2.40;;
14116;SDS011;7137;51.436;6.544;2022-11-13T13:29:15;4.80;;;2.40;;
14116;SDS011;7137;51.436;6.544;2022-11-13T13:32:20;5.87;;;3.13;;
14116;SDS011;7137;51.436;6.544;2022-11-13T13:35:28;5.97;;;3.60;;
14116;SDS011;7137;51.436;6.544;2022-11-13T13:38:35;7.13;;;3.87;;
14116;SDS011;7137;51.436;6.544;2022-11-13T13:41:47;7.27;;;4.33;;
14116;SDS011;7137;51.436;6.544;2022-11-13T13:45:13;7.70;;;4.60;;
14116;SDS011;7137;51.436;6.544;2022-11-13T13:48:22;10.20;;;5.40;;
14116;SDS011;7137;51.436;6.544;2022-11-13T13:51:27;10.07;;;6.23;;
14116;SDS011;7137;51.436;6.544;2022-11-13T13:54:31;14.07;;;7.07;;
14116;SDS011;7137;51.436;6.544;2022-11-13T13:57:37;10.30;;;7.47;;
14116;SDS011;7137;51.436;6.544;2022-11-13T14:00:42;10.47;;;7.50;;
14116;SDS011;7137;51.436;6.544;2022-11-13T14:04:05;8.23;;;7.10;;
14116;SDS011;7137;51.436;6.544;2022-11-13T14:07:21;10.80;;;8.37;;
14116;SDS011;7137;51.436;6.544;2022-11-13T14:10:26;10.57;;;8.03;;
14116;SDS011;7137;51.436;6.544;2022-11-13T14:13:28;10.47;;;8.87;;
14116;SDS011;7137;51.436;6.544;2022-11-13T14:16:32;8.57;;;7.67;;
14116;SDS011;7137;51.436;6.544;2022-11-13T14:19:34;10.43;;;8.50;;
14116;SDS011;7137;51.436;6.544;2022-11-13T14:22:36;10.30;;;8.20;;
14116;SDS011;7137;51.436;6.544;2022-11-13T14:25:38;9.00;;;7.77;;
14116;SDS011;7137;51.436;6.544;2022-11-13T14:28:44;8.40;;;7.20;;
14116;SDS011;7137;51.436;6.544;2022-11-13T14:31:52;8.30;;;7.40;;
14116;SDS011;7137;51.436;6.544;2022-11-13T14:34:55;9.20;;;7.67;;
14116;SDS011;7137;51.436;6.544;2022-11-13T14:38:00;9.27;;;7.17;;
14116;SDS011;7137;51.436;6.544;2022-11-13T14:41:01;9.03;;;7.37;;
14116;SDS011;7137;51.436;6.544;2022-11-13T14:44:04;9.13;;;7.20;;
14116;SDS011;7137;51.436;6.544;2022-11-13T14:47:19;7.80;;;6.67;;
14116;SDS011;7137;51.436;6.544;2022-11-13T14:50:24;8.13;;;6.53;;
14116;SDS011;7137;51.436;6.544;2022-11-13T14:53:29;7.80;;;5.37;;
14116;SDS011;7137;51.436;6.544;2022-11-13T14:56:33;7.60;;;5.63;;
14116;SDS011;7137;51.436;6.544;2022-11-13T14:59:37;7.50;;;5.90;;
14116;SDS011;7137;51.436;6.544;2022-11-13T15:02:42;6.67;;;4.93;;
14116;SDS011;7137;51.436;6.544;2022-11-13T15:05:44;7.23;;;4.70;;
14116;SDS011;7137;51.436;6.544;2022-11-13T15:08:46;6.17;;;4.93;;
14116;SDS011;7137;51.436;6.544;2022-11-13T15:11:50;7.30;;;4.87;;
14116;SDS011;7137;51.436;6.544;2022-11-13T15:14:52;6.83;;;4.73;;
14116;SDS011;7137;51.436;6.544;2022-11-13T15:17:55;7.17;;;5.23;;
14116;SDS011;7137;51.436;6.544;2022-11-13T15:20:57;6.20;;;4.70;;
14116;SDS011;7137;51.436;6.544;2022-11-13T15:23:59;7.00;;;4.77;;
14116;SDS011;7137;51.436;6.544;2022-11-13T15:27:01;5.57;;;4.40;;
14116;SDS011;7137;51.436;6.544;2022-11-13T15:30:04;7.30;;;5.50;;
14116;SDS011;7137;51.436;6.544;2022-11-13T15:33:10;6.53;;;4.60;;
14116;SDS011;7137;51.436;6.544;2022-11-13T15:36:14;7.13;;;5.23;;
14116;SDS011;7137;51.436;6.544;2022-11-13T15:39:16;7.07;;;5.20;;
14116;SDS011;7137;51.436;6.544;2022-11-13T15:42:18;6.63;;;4.90;;
14116;SDS011;7137;51.436;6.544;2022-11-13T15:45:27;7.53;;;5.47;;
14116;SDS011;7137;51.436;6.544;2022-11-13T15:48:30;6.63;;;4.80;;
14116;SDS011;7137;51.436;6.544;2022-11-13T15:51:33;6.50;;;5.00;;
14116;SDS011;7137;51.436;6.544;2022-11-13T15:54:37;7.17;;;5.57;;
14116;SDS011;7137;51.436;6.544;2022-11-13T15:57:39;6.87;;;4.80;;
14116;SDS011;7137;51.436;6.544;2022-11-13T16:00:40;6.77;;;4.83;;
14116;SDS011;7137;51.436;6.544;2022-11-13T16:03:43;6.37;;;4.80;;
14116;SDS011;7137;51.436;6.544;2022-11-13T16:06:45;7.57;;;5.07;;
14116;SDS011;7137;51.436;6.544;2022-11-13T16:09:47;7.40;;;5.60;;
14116;SDS011;7137;51.436;6.544;2022-11-13T16:12:48;6.67;;;4.40;;
14116;SDS011;7137;51.436;6.544;2022-11-13T16:15:51;7.57;;;4.30;;
14116;SDS011;7137;51.436;6.544;2022-11-13T16:18:55;6.70;;;4.60;;
14116;SDS011;7137;51.436;6.544;2022-11-13T16:21:57;6.60;;;4.67;;
14116;SDS011;7137;51.436;6.544;2022-11-13T16:24:59;8.07;;;5.10;;
14116;SDS011;7137;51.436;6.544;2022-11-13T16:28:01;6.37;;;4.30;;
14116;SDS011;7137;51.436;6.544;2022-11-13T16:31:03;6.63;;;4.60;;
14116;SDS011;7137;51.436;6.544;2022-11-13T16:34:07;8.57;;;6.10;;
14116;SDS011;7137;51.436;6.544;2022-11-13T16:37:11;6.90;;;5.10;;
14116;SDS011;7137;51.436;6.544;2022-11-13T16:40:17;7.33;;;4.70;;
14116;SDS011;7137;51.436;6.544;2022-11-13T16:43:20;5.90;;;3.97;;
14116;SDS011;7137;51.436;6.544;2022-11-13T16:46:23;5.93;;;4.30;;
14116;SDS011;7137;51.436;6.544;2022-11-13T16:49:29;5.60;;;3.70;;
14116;SDS011;7137;51.436;6.544;2022-11-13T16:52:31;7.97;;;4.80;;
14116;SDS011;7137;51.436;6.544;2022-11-13T16:55:33;7.87;;;6.07;;
14116;SDS011;7137;51.436;6.544;2022-11-13T16:58:36;7.90;;;5.60;;
14116;SDS011;7137;51.436;6.544;2022-11-13T17:01:37;6.97;;;5.63;;
14116;SDS011;7137;51.436;6.544;2022-11-13T17:04:40;8.13;;;5.57;;
14116;SDS011;7137;51.436;6.544;2022-11-13T17:07:43;7.90;;;5.17;;
14116;SDS011;7137;51.436;6.544;2022-11-13T17:10:45;6.83;;;4.93;;
14116;SDS011;7137;51.436;6.544;2022-11-13T17:13:49;6.77;;;4.90;;
14116;SDS011;7137;51.436;6.544;2022-11-13T17:16:51;7.73;;;4.93;;
14116;SDS011;7137;51.436;6.544;2022-11-13T17:19:54;6.27;;;4.70;;
14116;SDS011;7137;51.436;6.544;2022-11-13T17:22:55;7.23;;;5.00;;
14116;SDS011;7137;51.436;6.544;2022-11-13T17:25:57;6.37;;;4.60;;
14116;SDS011;7137;51.436;6.544;2022-11-13T17:28:58;7.53;;;4.67;;
14116;SDS011;7137;51.436;6.544;2022-11-13T17:32:01;6.50;;;4.60;;
14116;SDS011;7137;51.436;6.544;2022-11-13T17:35:04;7.10;;;4.90;;
14116;SDS011;7137;51.436;6.544;2022-11-13T17:38:06;7.13;;;4.80;;
14116;SDS011;7137;51.436;6.544;2022-11-13T17:41:08;6.77;;;4.53;;
14116;SDS011;7137;51.436;6.544;2022-11-13T17:44:11;6.27;;;4.70;;
14116;SDS011;7137;51.436;6.544;2022-11-13T17:47:13;7.30;;;5.53;;
14116;SDS011;7137;51.436;6.544;2022-11-13T17:50:16;7.20;;;5.00;;
14116;SDS011;7137;51.436;6.544;2022-11-13T17:53:17;7.90;;;6.10;;
14116;SDS011;7137;51.436;6.544;2022-11-13T17:56:19;8.00;;;5.63;;
14116;SDS011;7137;51.436;6.544;2022-11-13T17:59:21;7.17;;;5.43;;
14116;SDS011;7137;51.436;6.544;2022-11-13T18:02:22;7.83;;;6.20;;
14116;SDS011;7137;51.436;6.544;2022-11-13T18:05:25;6.93;;;5.73;;
14116;SDS011;7137;51.436;6.544;2022-11-13T18:08:27;7.37;;;5.73;;
14116;SDS011;7137;51.436;6.544;2022-11-13T18:11:29;7.47;;;5.83;;
14116;SDS011;7137;51.436;6.544;2022-11-13T18:14:30;8.33;;;5.97;;
14116;SDS011;7137;51.436;6.544;2022-11-13T18:17:32;8.80;;;6.10;;
14116;SDS011;7137;51.436;6.544;2022-11-13T18:20:37;8.57;;;6.60;;
14116;SDS011;7137;51.436;6.544;2022-11-13T18:23:40;7.63;;;6.03;;
14116;SDS011;7137;51.436;6.544;2022-11-13T18:26:43;10.00;;;6.40;;
14116;SDS011;7137;51.436;6.544;2022-11-13T18:29:45;8.77;;;6.80;;
14116;SDS011;7137;51.436;6.544;2022-11-13T18:32:46;8.77;;;6.83;;
14116;SDS011;7137;51.436;6.544;2022-11-13T18:35:49;8.10;;;6.80;;
14116;SDS011;7137;51.436;6.544;2022-11-13T18:38:55;8.60;;;6.60;;
14116;SDS011;7137;51.436;6.544;2022-11-13T18:41:57;8.50;;;6.40;;